createdAt,value
2022-09-12T00:00:31.940Z,9.98
2022-09-12T00:05:54.430Z,9.94
2022-09-12T00:10:56.843Z,9.92
2022-09-12T00:15:59.199Z,9.92
2022-09-12T00:21:02.575Z,9.92
2022-09-12T00:26:06.288Z,9.93
2022-09-12T00:31:10.180Z,9.91
2022-09-12T00:37:04.128Z,9.92
2022-09-12T00:42:06.497Z,9.93
2022-09-12T00:47:11.731Z,9.95
2022-09-12T00:52:18.620Z,9.95
2022-09-12T00:57:23.676Z,9.97
2022-09-12T01:02:26.494Z,9.96
2022-09-12T01:07:29.142Z,9.95
2022-09-12T01:12:33.553Z,9.94
2022-09-12T01:17:38.833Z,9.94
2022-09-12T01:22:54.331Z,9.96
2022-09-12T01:27:56.588Z,9.98
2022-09-12T01:33:01.843Z,9.95
2022-09-12T01:38:10.334Z,9.88
2022-09-12T01:43:21.244Z,9.84
2022-09-12T01:48:26.440Z,9.80
2022-09-12T01:53:34.070Z,9.80
2022-09-12T01:58:40.360Z,9.76
2022-09-12T02:03:45.648Z,9.71
2022-09-12T02:08:52.280Z,9.69
2022-09-12T02:13:58.941Z,9.67
2022-09-12T02:19:07.815Z,9.66
2022-09-12T02:24:13.234Z,9.64
2022-09-12T02:29:15.733Z,9.63
2022-09-12T02:34:20.970Z,9.64
2022-09-12T02:39:23.389Z,9.67
2022-09-12T02:44:27.611Z,9.70
2022-09-12T02:49:30.032Z,9.75
2022-09-12T02:54:32.473Z,9.81
2022-09-12T02:59:34.774Z,9.86
2022-09-12T03:04:38.065Z,9.94
2022-09-12T03:09:44.212Z,10.00
2022-09-12T03:14:46.640Z,10.04
2022-09-12T03:19:57.259Z,10.10
2022-09-12T03:25:05.614Z,10.16
2022-09-12T03:30:08.248Z,10.24
2022-09-12T03:35:10.816Z,10.32
2022-09-12T03:40:13.282Z,10.39
2022-09-12T03:45:16.515Z,10.45
2022-09-12T03:50:18.891Z,10.46
2022-09-12T03:55:21.202Z,10.46
2022-09-12T04:00:23.732Z,10.48
2022-09-12T04:05:26.552Z,10.50
2022-09-12T04:10:29.090Z,10.45
2022-09-12T04:15:31.406Z,10.46
2022-09-12T04:20:33.724Z,10.49
2022-09-12T04:25:36.103Z,10.51
2022-09-12T04:30:38.682Z,10.52
2022-09-12T04:35:41.591Z,10.58
2022-09-12T04:47:23.040Z,10.79
2022-09-12T04:52:25.361Z,10.86
2022-09-12T04:57:27.875Z,10.92
2022-09-12T05:02:30.349Z,10.95
2022-09-12T05:07:32.803Z,10.96
2022-09-12T05:12:36.601Z,10.95
2022-09-12T05:17:38.966Z,10.98
2022-09-12T05:22:41.312Z,11.01
2022-09-12T05:27:46.417Z,11.04
2022-09-12T05:32:52.300Z,11.05
2022-09-12T05:37:55.741Z,11.12
2022-09-12T05:42:58.067Z,11.26
2022-09-12T05:48:00.478Z,11.48
2022-09-12T05:54:01.244Z,11.73
2022-09-12T05:59:04.710Z,12.01
2022-09-12T06:04:07.450Z,12.13
2022-09-12T06:09:10.455Z,12.32
2022-09-12T06:14:13.892Z,12.60
2022-09-12T06:19:17.413Z,12.83
2022-09-12T06:24:20.718Z,13.06
2022-09-12T06:29:23.029Z,13.25
2022-09-12T06:34:26.992Z,13.53
2022-09-12T06:39:29.422Z,13.76
2022-09-12T06:44:31.708Z,14.00
2022-09-12T06:49:34.174Z,14.21
2022-09-12T06:54:36.488Z,14.42
2022-09-12T06:59:38.840Z,14.63
2022-09-12T07:04:41.144Z,14.79
2022-09-12T07:09:44.510Z,15.00
2022-09-12T07:14:47.559Z,15.18
2022-09-12T07:19:49.855Z,15.43
2022-09-12T07:24:53.990Z,15.52
2022-09-12T07:29:56.292Z,15.50
2022-09-12T07:34:58.593Z,15.63
2022-09-12T07:40:01.229Z,15.86
2022-09-12T07:45:03.907Z,16.01
2022-09-12T07:50:06.854Z,16.10
2022-09-12T07:55:09.266Z,16.10
2022-09-12T08:00:11.802Z,16.04
2022-09-12T08:05:14.126Z,16.11
2022-09-12T08:10:16.432Z,16.14
2022-09-12T08:15:20.221Z,16.20
2022-09-12T08:20:25.344Z,16.38
2022-09-12T08:25:31.017Z,16.58
2022-09-12T08:30:33.523Z,16.59
2022-09-12T08:35:35.906Z,16.57
2022-09-12T08:40:41.178Z,16.75
2022-09-12T08:45:51.727Z,16.83
2022-09-12T08:50:54.156Z,16.85
2022-09-12T08:55:59.056Z,16.71
2022-09-12T09:01:04.588Z,16.65
2022-09-12T09:06:13.182Z,16.59
2022-09-12T09:11:17.504Z,16.61
2022-09-12T09:16:22.974Z,16.82
2022-09-12T09:21:28.652Z,17.27
2022-09-12T09:26:39.172Z,17.61
2022-09-12T09:31:42.330Z,17.70
2022-09-12T09:36:48.352Z,18.06
2022-09-12T09:41:50.832Z,18.57
2022-09-12T09:46:55.491Z,18.79
2022-09-12T09:52:00.568Z,18.62
2022-09-12T09:57:04.987Z,18.49
2022-09-12T10:02:10.742Z,18.58
2022-09-12T10:07:18.685Z,18.61
2022-09-12T10:12:26.137Z,18.57
2022-09-12T10:17:34.275Z,18.72
2022-09-12T10:22:38.465Z,18.95
2022-09-12T10:27:41.805Z,19.36
2022-09-12T10:32:46.445Z,19.51
2022-09-12T10:37:52.322Z,19.52
2022-09-12T10:42:56.263Z,19.53
2022-09-12T10:48:07.349Z,19.51
2022-09-12T10:53:13.397Z,19.49
2022-09-12T10:58:18.841Z,19.48
2022-09-12T11:03:24.711Z,19.48
2022-09-12T11:08:47.174Z,19.52
2022-09-12T11:13:55.589Z,19.60
2022-09-12T11:19:06.826Z,19.54
2022-09-12T11:24:12.117Z,19.06
2022-09-12T11:29:14.417Z,18.87
2022-09-12T11:34:20.104Z,18.89
2022-09-12T11:39:28.020Z,18.92
2022-09-12T11:44:33.317Z,19.24
2022-09-12T11:49:36.694Z,19.77
2022-09-12T11:54:42.329Z,19.37
2022-09-12T11:59:47.610Z,18.89
2022-09-12T12:04:52.952Z,18.90
2022-09-12T12:09:55.594Z,19.03
2022-09-12T12:14:58.993Z,19.25
2022-09-12T12:20:07.489Z,19.17
2022-09-12T12:25:12.119Z,18.99
2022-09-12T12:30:17.349Z,18.70
2022-09-12T12:35:23.435Z,18.26
2022-09-12T12:40:26.713Z,18.04
2022-09-12T12:45:29.228Z,17.91
2022-09-12T12:50:32.061Z,18.34
2022-09-12T12:55:37.735Z,19.27
2022-09-12T13:00:40.359Z,19.62
2022-09-12T13:05:46.552Z,19.26
2022-09-12T13:10:52.475Z,18.78
2022-09-12T13:15:54.948Z,18.38
2022-09-12T13:21:01.088Z,18.15
2022-09-12T13:26:04.999Z,18.06
2022-09-12T13:31:10.433Z,18.16
2022-09-12T13:36:15.700Z,18.49
2022-09-12T13:41:18.031Z,18.86
2022-09-12T13:46:30.386Z,19.59
2022-09-12T13:51:32.803Z,20.49
2022-09-12T13:56:46.404Z,20.52
2022-09-12T14:01:48.768Z,19.98
2022-09-12T14:06:52.029Z,19.54
2022-09-12T14:11:54.415Z,19.10
2022-09-12T14:16:57.778Z,18.92
2022-09-12T14:22:02.268Z,18.66
2022-09-12T14:27:04.801Z,18.20
2022-09-12T14:32:18.495Z,17.84
2022-09-12T14:37:20.872Z,17.91
2022-09-12T14:42:30.963Z,19.48
2022-09-12T14:47:38.704Z,19.73
2022-09-12T14:52:41.013Z,18.95
2022-09-12T14:57:44.450Z,19.02
2022-09-12T15:02:47.898Z,20.59
2022-09-12T15:07:50.221Z,21.90
2022-09-12T15:13:04.541Z,22.95
2022-09-12T15:18:07.387Z,23.51
2022-09-12T15:23:14.971Z,24.22
2022-09-12T15:28:19.899Z,24.57
2022-09-12T15:33:24.031Z,24.31
2022-09-12T15:38:26.942Z,23.90
2022-09-12T15:43:29.546Z,24.31
2022-09-12T15:48:32.014Z,24.72
2022-09-12T15:53:34.508Z,25.33
2022-09-12T15:58:46.027Z,25.51
2022-09-12T16:03:57.850Z,25.13
2022-09-12T16:09:01.024Z,23.48
2022-09-12T16:14:04.481Z,21.20
2022-09-12T16:19:07.227Z,19.68
2022-09-12T16:24:09.763Z,18.52
2022-09-12T16:29:12.782Z,17.62
2022-09-12T16:34:15.395Z,16.91
2022-09-12T16:39:17.717Z,16.35
2022-09-12T16:44:20.163Z,15.93
2022-09-12T16:49:22.464Z,15.54
2022-09-12T16:54:24.781Z,15.26
2022-09-12T16:59:27.073Z,14.99
2022-09-12T17:04:29.490Z,14.74
2022-09-12T17:09:31.840Z,14.47
2022-09-12T17:14:34.235Z,14.24
2022-09-12T17:19:36.565Z,14.03
2022-09-12T17:24:39.462Z,13.85
2022-09-12T17:29:41.848Z,13.67
2022-09-12T17:34:44.176Z,13.51
2022-09-12T17:39:46.547Z,13.35
2022-09-12T17:44:50.310Z,13.20
2022-09-12T17:49:58.629Z,13.02
2022-09-12T17:55:08.066Z,12.79
2022-09-12T18:00:10.795Z,12.61
2022-09-12T18:05:14.025Z,12.46
2022-09-12T18:10:16.363Z,12.33
2022-09-12T18:15:18.675Z,12.18
2022-09-12T18:20:21.031Z,12.08
2022-09-12T18:25:23.618Z,12.02
2022-09-12T18:30:25.930Z,12.05
2022-09-12T18:35:28.269Z,12.20
2022-09-12T18:40:30.584Z,12.33
2022-09-12T18:45:33.408Z,12.39
2022-09-12T18:50:35.760Z,12.41
2022-09-12T18:55:38.087Z,12.35
2022-09-12T19:00:41.260Z,12.22
2022-09-12T19:05:43.735Z,12.06
2022-09-12T19:10:53.707Z,11.92
2022-09-12T19:15:56.163Z,11.79
2022-09-12T19:20:58.557Z,11.69
2022-09-12T19:26:06.048Z,11.56
2022-09-12T19:31:09.944Z,11.46
2022-09-12T19:36:40.838Z,11.35
2022-09-12T19:41:36.263Z,11.16
2022-09-12T19:46:38.654Z,11.03
2022-09-12T19:51:41.473Z,10.95
2022-09-12T19:56:43.879Z,10.88
2022-09-12T20:01:46.691Z,10.77
2022-09-12T20:06:49.571Z,10.66
2022-09-12T20:11:51.900Z,10.58
2022-09-12T20:16:54.207Z,10.52
2022-09-12T20:21:56.538Z,10.44
2022-09-12T20:33:37.466Z,10.22
2022-09-12T20:38:40.101Z,10.13
2022-09-12T20:43:42.450Z,10.04
2022-09-12T20:55:11.996Z,9.84
2022-09-12T21:00:14.524Z,9.78
2022-09-12T21:05:17.334Z,9.72
2022-09-12T21:10:19.757Z,9.60
2022-09-12T21:15:22.394Z,9.49
2022-09-12T21:20:24.733Z,9.43
2022-09-12T21:32:06.008Z,9.33
2022-09-12T21:37:08.462Z,9.25
2022-09-12T21:42:10.810Z,9.29
2022-09-12T21:47:13.119Z,9.37
2022-09-12T21:52:15.439Z,9.45
2022-09-12T21:57:17.730Z,9.48
2022-09-12T22:02:20.182Z,9.48
2022-09-12T22:07:23.422Z,9.48
2022-09-12T22:12:28.698Z,9.48
2022-09-12T22:17:31.092Z,9.41
2022-09-12T22:22:37.876Z,9.33
2022-09-12T22:27:40.192Z,9.25
2022-09-12T22:32:42.668Z,9.19
2022-09-12T22:37:46.264Z,9.14
2022-09-12T22:42:50.907Z,9.04
2022-09-12T22:47:53.213Z,8.94
2022-09-12T22:52:55.684Z,8.88
2022-09-12T22:57:57.974Z,8.82
2022-09-12T23:03:01.507Z,8.66
2022-09-12T23:08:03.854Z,8.49
2022-09-12T23:13:06.824Z,8.37
2022-09-12T23:18:09.128Z,8.31
2022-09-12T23:23:11.495Z,8.31
2022-09-12T23:28:14.637Z,8.34
2022-09-12T23:33:17.097Z,8.32
2022-09-12T23:38:19.401Z,8.29
2022-09-12T23:43:21.740Z,8.25
2022-09-12T23:48:24.124Z,8.18
2022-09-12T23:53:26.679Z,8.13
2022-09-12T23:58:30.837Z,8.05
